Lang, Canada
Current Conditions -  °F | °C
As of 10:00 AM on Thursday 29 Jan 2015 (Local Time) from CYQR Reporting Station
Light Snow Light Snow  
Wind Chill:   Ceiling: 900
Heat Index: 12°   Visibility: 1.5mi
Dew Point: 10°   Wind: 5mph
Humidity: 92%   Direction: 10°N
Pressure: 30.48"   Gusts: NA
Location:  49.92°N, 104.37°W
Report Text: CYQR 291600Z 01004KT 350V080 1 1/2SM -SN BR OVC009 M11/M12 A3048 RMK SC8 SLP364
Loading
Personal Weather Stations






























Interactive Weather Map New forecast layout! Learn more

10-Day Weather Forecast

Advertisements
Track Severe Weather on mobile